Time;durP1;ratioP1;P1;durP2;ratioP2;P2;SDS_P1;SDS_P2;PMS_P1;PMS_P2;Temp;Humidity;BMP_temperature;BMP_pressure;BME280_temperature;BME280_humidity;BME280_pressure;Samples;Min_cycle;Max_cycle;Signal;HPM_P1;HPM_P2
2023/03/24 00:01:24;;;;;;;2.40;0.70;;;;;;;;;;5068585;28;20254;-58
2023/03/24 00:03:51;;;;;;;5.25;1.10;;;;;;;;;;5069423;28;20519;-59
2023/03/24 00:06:17;;;;;;;3.08;1.05;;;;;;;;;;5068605;28;20549;-62
2023/03/24 00:08:46;;;;;;;5.55;0.77;;;;;;;;;;5053879;28;20041;-59
2023/03/24 00:11:13;;;;;;;7.55;0.93;;;;;;;;;;5033288;28;20075;-61
2023/03/24 00:13:40;;;;;;;6.35;1.17;;;;;;;;;;5067243;28;20043;-57
2023/03/24 00:16:09;;;;;;;6.65;1.13;;;;;;;;;;5069794;28;20052;-59
2023/03/24 00:18:36;;;;;;;4.50;1.00;;;;;;;;;;5068877;28;20040;-57
2023/03/24 00:21:03;;;;;;;4.22;1.15;;;;;;;;;;5067163;28;20512;-62
2023/03/24 00:23:34;;;;;;;4.85;1.05;;;;;;;;;;5067930;28;20507;-59
2023/03/24 00:26:01;;;;;;;8.32;1.52;;;;;;;;;;5067877;28;20032;-59
2023/03/24 00:28:30;;;;;;;6.40;0.90;;;;;;;;;;5052874;28;20041;-58
2023/03/24 00:30:57;;;;;;;2.80;0.90;;;;;;;;;;4991464;28;20081;-61
2023/03/24 00:33:24;;;;;;;5.05;1.10;;;;;;;;;;4992606;28;21775;-61
2023/03/24 00:35:51;;;;;;;5.60;0.93;;;;;;;;;;4992711;28;20128;-60
2023/03/24 00:38:18;;;;;;;5.65;1.42;;;;;;;;;;4992556;28;20043;-62
2023/03/24 00:40:47;;;;;;;3.35;0.82;;;;;;;;;;4993421;28;20084;-59
2023/03/24 00:43:14;;;;;;;4.00;0.85;;;;;;;;;;4992689;28;20038;-63
2023/03/24 00:45:45;;;;;;;7.47;1.00;;;;;;;;;;4973574;28;20072;-57
2023/03/24 00:48:16;;;;;;;4.68;0.77;;;;;;;;;;4992975;28;20068;-60
2023/03/24 00:50:47;;;;;;;5.72;1.10;;;;;;;;;;5000808;28;20054;-59
2023/03/24 00:53:15;;;;;;;9.63;1.20;;;;;;;;;;4992755;28;20128;-58
2023/03/24 00:55:48;;;;;;;3.00;1.10;;;;;;;;;;4992097;28;20041;-61
2023/03/24 00:58:17;;;;;;;5.60;1.10;;;;;;;;;;4992980;28;20494;-60
2023/03/24 01:00:44;;;;;;;7.38;0.93;;;;;;;;;;5000047;28;20141;-60
2023/03/24 01:03:11;;;;;;;2.92;0.98;;;;;;;;;;4992525;28;20172;-58
2023/03/24 01:05:37;;;;;;;3.83;1.17;;;;;;;;;;4991346;28;20046;-66
2023/03/24 01:08:05;;;;;;;5.10;1.58;;;;;;;;;;4992650;28;20062;-59
2023/03/24 01:10:33;;;;;;;5.78;1.20;;;;;;;;;;4992474;28;20129;-59
2023/03/24 01:13:00;;;;;;;6.05;0.90;;;;;;;;;;4986176;28;20049;-58
2023/03/24 01:15:28;;;;;;;3.47;1.00;;;;;;;;;;4990998;28;20042;-56
2023/03/24 01:17:55;;;;;;;10.82;1.42;;;;;;;;;;5004418;28;20411;-60
2023/03/24 01:20:22;;;;;;;8.15;1.40;;;;;;;;;;4990269;28;20851;-59
2023/03/24 01:22:49;;;;;;;4.88;1.38;;;;;;;;;;4991946;28;20034;-56
2023/03/24 01:25:21;;;;;;;5.20;1.33;;;;;;;;;;4991586;28;20151;-58
2023/03/24 01:27:48;;;;;;;8.68;1.42;;;;;;;;;;4993083;28;20125;-60
2023/03/24 01:30:16;;;;;;;8.40;1.75;;;;;;;;;;4993327;28;21027;-61
2023/03/24 01:32:43;;;;;;;9.20;1.38;;;;;;;;;;4991964;28;20100;-59
2023/03/24 01:35:10;;;;;;;8.52;1.52;;;;;;;;;;4992248;28;20096;-60
2023/03/24 01:37:37;;;;;;;6.13;1.42;;;;;;;;;;4992521;28;20026;-57
2023/03/24 01:40:13;;;;;;;7.72;1.50;;;;;;;;;;4996514;28;20053;-59
2023/03/24 01:42:40;;;;;;;5.22;1.52;;;;;;;;;;4995185;28;20052;-59
2023/03/24 01:45:25;;;;;;;9.13;1.60;;;;;;;;;;4996768;28;20113;-62
2023/03/24 01:47:51;;;;;;;7.25;1.80;;;;;;;;;;5002278;28;20054;-58
2023/03/24 01:50:18;;;;;;;8.13;1.65;;;;;;;;;;4995780;28;20850;-59
2023/03/24 01:52:45;;;;;;;5.80;1.80;;;;;;;;;;4996767;28;20220;-62
2023/03/24 01:55:17;;;;;;;8.68;2.10;;;;;;;;;;4996045;28;20506;-58
2023/03/24 01:57:56;;;;;;;7.57;1.70;;;;;;;;;;4996288;28;20037;-60
2023/03/24 02:00:23;;;;;;;10.57;2.22;;;;;;;;;;4996334;28;20041;-58
2023/03/24 02:02:57;;;;;;;8.23;2.00;;;;;;;;;;4996389;28;20437;-60
2023/03/24 02:05:26;;;;;;;16.35;2.35;;;;;;;;;;4995203;28;20045;-63
2023/03/24 02:07:58;;;;;;;12.80;2.38;;;;;;;;;;4997115;28;20109;-60
2023/03/24 02:10:25;;;;;;;17.10;2.28;;;;;;;;;;4995885;28;20057;-60
2023/03/24 02:12:52;;;;;;;16.95;2.53;;;;;;;;;;4995698;28;20030;-59
2023/03/24 02:15:19;;;;;;;10.85;2.75;;;;;;;;;;4996461;28;20045;-62
2023/03/24 02:17:50;;;;;;;13.52;2.60;;;;;;;;;;5003855;28;20046;-60
2023/03/24 02:20:22;;;;;;;16.75;3.40;;;;;;;;;;4993763;28;20057;-57
2023/03/24 02:23:05;;;;;;;18.13;3.35;;;;;;;;;;4996132;28;20041;-56
2023/03/24 02:25:47;;;;;;;18.13;3.38;;;;;;;;;;4996771;28;20062;-59
2023/03/24 02:28:18;;;;;;;13.43;3.13;;;;;;;;;;4997610;28;20041;-58
2023/03/24 02:31:02;;;;;;;21.20;3.15;;;;;;;;;;4998311;28;20116;-56
2023/03/24 02:33:32;;;;;;;13.43;3.63;;;;;;;;;;4992316;28;20041;-60
2023/03/24 02:36:08;;;;;;;24.58;4.40;;;;;;;;;;4994896;28;20459;-57
2023/03/24 02:38:45;;;;;;;23.45;3.63;;;;;;;;;;4995613;28;20046;-57
2023/03/24 02:41:37;;;;;;;28.70;4.47;;;;;;;;;;4995773;28;20419;-59
2023/03/24 02:44:07;;;;;;;24.52;4.20;;;;;;;;;;4995537;28;20562;-59
2023/03/24 02:46:39;;;;;;;17.63;3.67;;;;;;;;;;4995566;28;20089;-60
2023/03/24 02:49:23;;;;;;;21.55;3.45;;;;;;;;;;4995951;28;20042;-59
2023/03/24 02:52:12;;;;;;;17.23;3.97;;;;;;;;;;4994682;28;20053;-59
2023/03/24 02:54:39;;;;;;;15.13;4.07;;;;;;;;;;4995413;28;20061;-59
2023/03/24 02:57:10;;;;;;;12.48;3.28;;;;;;;;;;4994331;28;20058;-57
2023/03/24 02:59:40;;;;;;;18.48;3.65;;;;;;;;;;4994387;28;20049;-58
2023/03/24 03:02:19;;;;;;;12.48;3.35;;;;;;;;;;5000183;28;20057;-59
2023/03/24 03:04:48;;;;;;;22.38;4.25;;;;;;;;;;4995078;28;20061;-59
2023/03/24 03:07:20;;;;;;;23.05;4.32;;;;;;;;;;4991881;28;20046;-60
2023/03/24 03:10:00;;;;;;;26.23;5.10;;;;;;;;;;5004281;28;20048;-69
2023/03/24 03:12:29;;;;;;;36.38;6.90;;;;;;;;;;4996613;28;20164;-61
2023/03/24 03:14:59;;;;;;;35.60;5.70;;;;;;;;;;4998415;28;20034;-63
2023/03/24 03:17:29;;;;;;;27.80;4.43;;;;;;;;;;4998609;28;20561;-61
2023/03/24 03:20:10;;;;;;;14.77;4.28;;;;;;;;;;4997819;28;20048;-59
2023/03/24 03:22:43;;;;;;;14.10;3.78;;;;;;;;;;4990895;28;21135;-62
2023/03/24 03:25:09;;;;;;;;;;;;;;;;;;4996076;28;20116;-57
2023/03/24 03:27:37;;;;;;;34.72;10.07;;;;;;;;;;4995626;28;20484;-58
2023/03/24 03:30:20;;;;;;;19.73;6.13;;;;;;;;;;4996784;28;20137;-57
2023/03/24 03:32:53;;;;;;;18.52;4.88;;;;;;;;;;4994664;28;20052;-57
2023/03/24 03:35:25;;;;;;;25.75;6.10;;;;;;;;;;4994880;28;20034;-59
2023/03/24 03:38:04;;;;;;;19.73;4.93;;;;;;;;;;4986438;28;20386;-57
2023/03/24 03:40:38;;;;;;;31.88;4.60;;;;;;;;;;4995241;28;20074;-60
2023/03/24 03:43:05;;;;;;;19.02;4.28;;;;;;;;;;4994409;28;20041;-56
2023/03/24 03:45:32;;;;;;;27.90;4.90;;;;;;;;;;4994284;28;20093;-60
2023/03/24 03:48:00;;;;;;;35.42;5.13;;;;;;;;;;5001877;28;20073;-59
2023/03/24 03:50:26;;;;;;;35.22;4.97;;;;;;;;;;4995926;28;20169;-59
2023/03/24 03:52:53;;;;;;;35.30;4.85;;;;;;;;;;4994521;28;20132;-57
2023/03/24 03:55:21;;;;;;;33.00;8.48;;;;;;;;;;4984876;28;20064;-57
2023/03/24 03:57:47;;;;;;;26.08;6.00;;;;;;;;;;4993873;28;20274;-56
2023/03/24 04:00:16;;;;;;;25.70;5.72;;;;;;;;;;4993472;28;20145;-56
2023/03/24 04:02:52;;;;;;;27.65;5.57;;;;;;;;;;4992583;28;20025;-56
2023/03/24 04:05:35;;;;;;;35.83;5.90;;;;;;;;;;4993842;28;20039;-57
2023/03/24 04:08:20;;;;;;;27.92;5.35;;;;;;;;;;4993169;28;20057;-57
2023/03/24 04:10:50;;;;;;;30.48;4.47;;;;;;;;;;4993466;28;20089;-57
2023/03/24 04:13:35;;;;;;;18.55;4.50;;;;;;;;;;4998856;28;20059;-54
2023/03/24 04:16:05;;;;;;;18.75;4.10;;;;;;;;;;4993803;28;20046;-55
2023/03/24 04:18:35;;;;;;;27.23;4.60;;;;;;;;;;4994681;28;20089;-55
2023/03/24 04:21:05;;;;;;;18.83;4.05;;;;;;;;;;5000442;28;20042;-56
2023/03/24 04:23:38;;;;;;;34.45;5.22;;;;;;;;;;4993941;28;20040;-56
2023/03/24 04:26:33;;;;;;;30.77;5.15;;;;;;;;;;5006241;28;20125;-57
2023/03/24 04:29:11;;;;;;;30.98;4.28;;;;;;;;;;5002631;28;20103;-59
2023/03/24 04:31:48;;;;;;;22.55;4.30;;;;;;;;;;4989348;28;20052;-56
2023/03/24 04:34:34;;;;;;;20.20;4.85;;;;;;;;;;4993225;28;20058;-57
2023/03/24 04:37:22;;;;;;;19.08;4.60;;;;;;;;;;4998380;28;20042;-56
2023/03/24 04:39:52;;;;;;;17.13;4.72;;;;;;;;;;4992912;28;20625;-58
2023/03/24 04:42:39;;;;;;;24.95;4.65;;;;;;;;;;4992279;28;20042;-58
2023/03/24 04:45:06;;;;;;;28.13;4.93;;;;;;;;;;4993572;28;20037;-59
2023/03/24 04:47:37;;;;;;;30.35;5.65;;;;;;;;;;4992328;28;20050;-57
2023/03/24 04:50:08;;;;;;;40.60;5.32;;;;;;;;;;4999670;28;20087;-59
2023/03/24 04:52:34;;;;;;;24.85;4.85;;;;;;;;;;5008839;28;20049;-57
2023/03/24 04:55:01;;;;;;;19.42;4.20;;;;;;;;;;4993187;28;20038;-57
2023/03/24 04:57:28;;;;;;;23.35;5.38;;;;;;;;;;4995122;28;20133;-57
2023/03/24 04:59:55;;;;;;;29.98;5.25;;;;;;;;;;5000062;28;20084;-58
2023/03/24 05:02:22;;;;;;;26.73;4.50;;;;;;;;;;5001268;28;20045;-57
2023/03/24 05:04:48;;;;;;;24.38;4.32;;;;;;;;;;4993449;28;20130;-58
2023/03/24 05:07:16;;;;;;;37.65;6.07;;;;;;;;;;4993286;28;20577;-57
2023/03/24 05:09:42;;;;;;;19.92;4.32;;;;;;;;;;5001084;28;20057;-57
2023/03/24 05:12:09;;;;;;;18.20;4.65;;;;;;;;;;4994112;28;20117;-58
2023/03/24 05:14:36;;;;;;;23.70;4.03;;;;;;;;;;4995087;28;20041;-58
2023/03/24 05:17:03;;;;;;;22.52;4.45;;;;;;;;;;4996880;28;20046;-58
2023/03/24 05:19:29;;;;;;;20.08;4.03;;;;;;;;;;4997111;28;20053;-58
2023/03/24 05:21:56;;;;;;;24.02;4.60;;;;;;;;;;5006254;28;20109;-56
2023/03/24 05:24:23;;;;;;;18.67;4.10;;;;;;;;;;4996437;28;20031;-61
2023/03/24 05:26:49;;;;;;;21.65;3.78;;;;;;;;;;4997912;28;20049;-58
2023/03/24 05:29:16;;;;;;;19.75;4.57;;;;;;;;;;4996490;28;20065;-59
2023/03/24 05:31:43;;;;;;;30.40;4.10;;;;;;;;;;4997254;28;20100;-57
2023/03/24 05:34:10;;;;;;;14.98;3.20;;;;;;;;;;4996547;28;20045;-57
2023/03/24 05:36:37;;;;;;;26.45;4.28;;;;;;;;;;5004017;28;20390;-59
2023/03/24 05:39:04;;;;;;;17.48;3.75;;;;;;;;;;4997572;28;20046;-57
2023/03/24 05:41:30;;;;;;;13.40;3.13;;;;;;;;;;4997097;28;20054;-58
2023/03/24 05:43:57;;;;;;;18.40;4.03;;;;;;;;;;4997102;28;20523;-57
2023/03/24 05:46:23;;;;;;;18.08;4.28;;;;;;;;;;4997153;28;20041;-61
2023/03/24 05:48:50;;;;;;;37.05;5.28;;;;;;;;;;4998100;28;20046;-58
2023/03/24 05:51:17;;;;;;;15.55;3.90;;;;;;;;;;4997312;28;20050;-61
2023/03/24 05:53:43;;;;;;;18.05;4.15;;;;;;;;;;4997331;28;20049;-57
2023/03/24 05:56:10;;;;;;;30.83;4.80;;;;;;;;;;4997306;28;20053;-57
2023/03/24 05:58:38;;;;;;;22.05;3.47;;;;;;;;;;4996386;28;20038;-59
2023/03/24 06:01:09;;;;;;;20.08;4.22;;;;;;;;;;4997757;28;20049;-58
2023/03/24 06:03:37;;;;;;;16.27;3.88;;;;;;;;;;4996916;28;20061;-58
2023/03/24 06:06:08;;;;;;;20.13;3.80;;;;;;;;;;4997232;28;20042;-58
2023/03/24 06:08:37;;;;;;;15.95;3.45;;;;;;;;;;4996630;28;20099;-57
2023/03/24 06:11:03;;;;;;;14.82;3.75;;;;;;;;;;4996868;28;20042;-64
2023/03/24 06:13:31;;;;;;;13.27;3.25;;;;;;;;;;4995923;28;20049;-57
2023/03/24 06:15:58;;;;;;;19.92;3.25;;;;;;;;;;5012700;28;20192;-58
2023/03/24 06:18:26;;;;;;;15.02;3.70;;;;;;;;;;4999349;28;20038;-60
2023/03/24 06:20:55;;;;;;;13.65;4.28;;;;;;;;;;4996755;28;20160;-55
2023/03/24 06:23:24;;;;;;;18.88;3.97;;;;;;;;;;4996219;28;20045;-57
2023/03/24 06:25:52;;;;;;;17.17;4.45;;;;;;;;;;5001669;28;20046;-54
2023/03/24 06:28:18;;;;;;;19.30;4.15;;;;;;;;;;4999840;28;20070;-58
2023/03/24 06:30:45;;;;;;;20.58;4.05;;;;;;;;;;4997475;28;20053;-60
2023/03/24 06:33:13;;;;;;;19.77;3.88;;;;;;;;;;4996690;28;20068;-58
2023/03/24 06:35:39;;;;;;;16.85;3.97;;;;;;;;;;4997185;28;20045;-59
2023/03/24 06:38:07;;;;;;;13.35;3.20;;;;;;;;;;4996641;28;20209;-56
2023/03/24 06:40:34;;;;;;;14.05;2.88;;;;;;;;;;4996307;28;20145;-57
2023/03/24 06:43:00;;;;;;;18.17;3.35;;;;;;;;;;4996106;28;20494;-58
2023/03/24 06:45:27;;;;;;;10.68;2.92;;;;;;;;;;4997990;28;20030;-56
2023/03/24 06:47:56;;;;;;;11.82;3.03;;;;;;;;;;4997302;28;20379;-58
2023/03/24 06:50:31;;;;;;;9.55;2.45;;;;;;;;;;4996303;28;20050;-58
2023/03/24 06:52:59;;;;;;;13.02;2.83;;;;;;;;;;4995626;28;20181;-58
2023/03/24 06:55:26;;;;;;;13.32;2.85;;;;;;;;;;4995770;28;20056;-57
2023/03/24 06:57:53;;;;;;;11.00;2.38;;;;;;;;;;4997125;28;20155;-59
2023/03/24 07:00:20;;;;;;;11.02;2.22;;;;;;;;;;4996239;28;20049;-58
2023/03/24 07:02:47;;;;;;;13.30;2.30;;;;;;;;;;5002690;28;20029;-58
2023/03/24 07:05:14;;;;;;;9.10;2.20;;;;;;;;;;5000282;28;20078;-61
2023/03/24 07:07:40;;;;;;;12.88;2.17;;;;;;;;;;4995996;28;20033;-60
2023/03/24 07:10:07;;;;;;;9.88;1.50;;;;;;;;;;4996595;28;20065;-58
2023/03/24 07:12:35;;;;;;;11.88;2.08;;;;;;;;;;4993219;28;20885;-61
2023/03/24 07:15:03;;;;;;;8.68;1.83;;;;;;;;;;4996810;28;20232;-57
2023/03/24 07:17:30;;;;;;;16.08;1.60;;;;;;;;;;4997071;28;20117;-57
2023/03/24 07:19:56;;;;;;;5.97;1.92;;;;;;;;;;4996228;28;20165;-56
2023/03/24 07:22:23;;;;;;;5.38;1.40;;;;;;;;;;4994927;28;20184;-59
2023/03/24 07:24:51;;;;;;;6.47;1.60;;;;;;;;;;4996580;28;20057;-58
2023/03/24 07:27:17;;;;;;;11.43;1.92;;;;;;;;;;4995170;28;20046;-60
2023/03/24 07:29:44;;;;;;;8.10;1.70;;;;;;;;;;4996035;28;20038;-57
2023/03/24 07:32:11;;;;;;;5.47;1.73;;;;;;;;;;4995931;28;20184;-57
2023/03/24 07:34:38;;;;;;;13.32;2.17;;;;;;;;;;4994842;28;20041;-57
2023/03/24 07:37:05;;;;;;;8.75;1.75;;;;;;;;;;4995971;28;20038;-57
2023/03/24 07:39:31;;;;;;;4.00;1.45;;;;;;;;;;4994792;28;20046;-57
2023/03/24 07:41:58;;;;;;;4.30;1.35;;;;;;;;;;4996396;28;20065;-56
2023/03/24 07:44:25;;;;;;;6.45;1.38;;;;;;;;;;4994619;28;20041;-57
2023/03/24 07:46:52;;;;;;;4.97;1.55;;;;;;;;;;4995641;28;20038;-58
2023/03/24 07:49:18;;;;;;;6.25;1.55;;;;;;;;;;4994802;28;20514;-56
2023/03/24 07:51:45;;;;;;;9.00;1.70;;;;;;;;;;4996271;28;20806;-60
2023/03/24 07:54:12;;;;;;;11.52;1.33;;;;;;;;;;4995566;28;20038;-55
2023/03/24 07:56:38;;;;;;;5.32;1.48;;;;;;;;;;4995232;28;20038;-58
2023/03/24 07:59:05;;;;;;;5.90;1.48;;;;;;;;;;4996149;28;20092;-56
2023/03/24 08:01:35;;;;;;;6.90;1.38;;;;;;;;;;4995161;28;20042;-56
2023/03/24 08:04:03;;;;;;;4.95;1.50;;;;;;;;;;4994258;28;20148;-56
2023/03/24 08:06:30;;;;;;;4.72;1.10;;;;;;;;;;4994076;28;20038;-56
2023/03/24 08:08:56;;;;;;;5.60;1.67;;;;;;;;;;4995081;28;20045;-59
2023/03/24 08:11:23;;;;;;;6.32;1.52;;;;;;;;;;4994075;28;20065;-56
2023/03/24 08:13:50;;;;;;;7.60;1.90;;;;;;;;;;4994542;28;20983;-57
2023/03/24 08:16:16;;;;;;;7.20;1.77;;;;;;;;;;4995488;28;21309;-58
2023/03/24 08:18:43;;;;;;;4.78;1.70;;;;;;;;;;5003091;28;20084;-56
2023/03/24 08:21:10;;;;;;;7.88;1.90;;;;;;;;;;4996164;28;20092;-57
2023/03/24 08:23:37;;;;;;;13.50;1.67;;;;;;;;;;4992327;28;20034;-58
2023/03/24 08:26:03;;;;;;;3.55;1.33;;;;;;;;;;4995596;28;20494;-63
2023/03/24 08:28:30;;;;;;;6.25;1.70;;;;;;;;;;4993761;28;20046;-57
2023/03/24 08:30:57;;;;;;;8.40;1.83;;;;;;;;;;4994652;28;20057;-57
2023/03/24 08:33:23;;;;;;;4.60;1.67;;;;;;;;;;4993604;28;20045;-57
2023/03/24 08:35:51;;;;;;;4.25;1.70;;;;;;;;;;4994432;28;20409;-57
2023/03/24 08:38:22;;;;;;;10.57;2.28;;;;;;;;;;4994471;28;22313;-59
2023/03/24 08:40:49;;;;;;;8.70;2.05;;;;;;;;;;4994558;28;20065;-55
2023/03/24 08:43:16;;;;;;;6.85;1.90;;;;;;;;;;4994299;28;20053;-56
2023/03/24 08:45:43;;;;;;;9.40;2.00;;;;;;;;;;5003489;28;20896;-56
2023/03/24 08:48:09;;;;;;;8.60;1.63;;;;;;;;;;4994665;28;20042;-56
2023/03/24 08:50:38;;;;;;;6.22;1.88;;;;;;;;;;4994711;28;20057;-57
2023/03/24 08:53:05;;;;;;;4.70;1.80;;;;;;;;;;5001066;28;20057;-53
2023/03/24 08:55:32;;;;;;;4.18;1.75;;;;;;;;;;4993913;28;20042;-59
2023/03/24 08:57:59;;;;;;;4.40;1.48;;;;;;;;;;4994635;28;20049;-55
2023/03/24 09:00:27;;;;;;;5.97;2.00;;;;;;;;;;4993562;28;20042;-58
2023/03/24 09:02:55;;;;;;;5.97;1.92;;;;;;;;;;4993782;28;20041;-57
2023/03/24 09:05:22;;;;;;;5.35;1.75;;;;;;;;;;4994394;28;20108;-54
2023/03/24 09:07:50;;;;;;;8.45;2.08;;;;;;;;;;4994428;28;21636;-56
2023/03/24 09:10:17;;;;;;;6.60;1.88;;;;;;;;;;4995203;28;20042;-59
2023/03/24 09:12:44;;;;;;;5.38;1.75;;;;;;;;;;5001874;28;20077;-56
2023/03/24 09:15:11;;;;;;;8.93;2.10;;;;;;;;;;4994914;28;20034;-56
2023/03/24 09:17:38;;;;;;;6.03;1.88;;;;;;;;;;4993628;28;20092;-56
2023/03/24 09:20:10;;;;;;;8.43;1.80;;;;;;;;;;4994354;28;20046;-55
2023/03/24 09:22:37;;;;;;;7.63;1.75;;;;;;;;;;4993186;28;20042;-53
2023/03/24 09:25:05;;;;;;;8.18;1.70;;;;;;;;;;4994810;28;20200;-54
2023/03/24 09:27:31;;;;;;;4.70;1.50;;;;;;;;;;4994065;28;20038;-56
2023/03/24 09:29:58;;;;;;;7.40;2.22;;;;;;;;;;4993659;28;20438;-56
2023/03/24 09:32:25;;;;;;;7.03;1.80;;;;;;;;;;4992544;28;20080;-58
2023/03/24 09:34:51;;;;;;;7.65;1.60;;;;;;;;;;4992895;28;20038;-55
2023/03/24 09:37:18;;;;;;;4.35;1.27;;;;;;;;;;4994212;28;20037;-59
2023/03/24 09:39:45;;;;;;;5.25;1.35;;;;;;;;;;4994288;28;20046;-56
2023/03/24 09:42:18;;;;;;;3.30;1.08;;;;;;;;;;4992132;28;20041;-55
2023/03/24 09:44:44;;;;;;;;;;;;;;;;;;5001910;28;20791;-56
2023/03/24 09:47:20;;;;;;;4.97;1.60;;;;;;;;;;4994728;28;19917;-56
2023/03/24 09:49:48;;;;;;;4.97;1.38;;;;;;;;;;5000693;28;20046;-58
2023/03/24 09:52:18;;;;;;;9.15;1.50;;;;;;;;;;4993542;28;20081;-53
2023/03/24 09:54:48;;;;;;;4.53;1.40;;;;;;;;;;4993258;28;20422;-56
2023/03/24 09:57:18;;;;;;;4.28;1.30;;;;;;;;;;4994539;28;20049;-56
2023/03/24 09:59:45;;;;;;;3.08;0.93;;;;;;;;;;5010173;28;20038;-56
2023/03/24 10:02:19;;;;;;;10.23;1.40;;;;;;;;;;4997619;28;20030;-57
2023/03/24 10:04:46;;;;;;;3.55;1.23;;;;;;;;;;5004264;28;20180;-57
2023/03/24 10:07:18;;;;;;;5.15;1.45;;;;;;;;;;4998406;28;20030;-56
2023/03/24 10:09:48;;;;;;;4.10;1.52;;;;;;;;;;5005254;28;20603;-58
2023/03/24 10:12:41;;;;;;;5.93;1.02;;;;;;;;;;4996480;28;20076;-57
2023/03/24 10:15:14;;;;;;;6.07;1.60;;;;;;;;;;5000342;28;20049;-57
2023/03/24 10:17:50;;;;;;;5.13;1.75;;;;;;;;;;4995716;28;20117;-55
2023/03/24 10:20:23;;;;;;;3.60;1.35;;;;;;;;;;4997066;28;20042;-56
2023/03/24 10:23:17;;;;;;;9.20;1.92;;;;;;;;;;4995913;28;20438;-58
2023/03/24 10:25:52;;;;;;;3.90;1.60;;;;;;;;;;4995520;28;20041;-58
2023/03/24 10:28:28;;;;;;;6.05;1.40;;;;;;;;;;4996598;28;20120;-57
2023/03/24 10:30:56;;;;;;;3.58;0.98;;;;;;;;;;5005238;28;20049;-56
2023/03/24 10:33:23;;;;;;;6.60;1.40;;;;;;;;;;4997160;28;20514;-58
2023/03/24 10:36:02;;;;;;;4.85;1.70;;;;;;;;;;4996111;28;20046;-55
2023/03/24 10:38:29;;;;;;;8.70;1.75;;;;;;;;;;4996562;28;20078;-57
2023/03/24 10:40:55;;;;;;;5.72;1.58;;;;;;;;;;4997119;28;20034;-56
2023/03/24 10:43:23;;;;;;;12.68;1.52;;;;;;;;;;4996351;28;20129;-57
2023/03/24 10:45:52;;;;;;;4.97;1.10;;;;;;;;;;4996189;28;20041;-57
2023/03/24 10:48:53;;;;;;;3.72;1.20;;;;;;;;;;4996332;28;20095;-59
2023/03/24 10:51:23;;;;;;;3.70;1.23;;;;;;;;;;4969433;28;20168;-58
2023/03/24 10:53:50;;;;;;;3.42;1.17;;;;;;;;;;4992724;28;20042;-57
2023/03/24 10:56:38;;;;;;;3.40;1.40;;;;;;;;;;4995180;28;20627;-57
2023/03/24 10:59:06;;;;;;;6.45;1.20;;;;;;;;;;4997253;28;20125;-57
2023/03/24 11:01:34;;;;;;;4.18;1.27;;;;;;;;;;4996095;28;20500;-57
2023/03/24 11:04:03;;;;;;;6.25;1.80;;;;;;;;;;4996749;28;20194;-57
2023/03/24 11:06:29;;;;;;;4.07;1.38;;;;;;;;;;4995799;28;20030;-57
2023/03/24 11:09:10;;;;;;;8.15;1.33;;;;;;;;;;4997268;28;20050;-55
2023/03/24 11:11:37;;;;;;;4.38;1.42;;;;;;;;;;4995950;28;20042;-56
2023/03/24 11:14:03;;;;;;;3.67;1.13;;;;;;;;;;4996998;28;20133;-58
2023/03/24 11:16:38;;;;;;;4.38;1.30;;;;;;;;;;4994971;28;20142;-56
2023/03/24 11:19:06;;;;;;;7.00;1.35;;;;;;;;;;5011089;28;20440;-55
2023/03/24 11:21:35;;;;;;;5.10;1.40;;;;;;;;;;5005487;28;20033;-56
2023/03/24 11:24:03;;;;;;;3.85;1.40;;;;;;;;;;4996688;28;20057;-58
2023/03/24 11:26:37;;;;;;;3.63;1.27;;;;;;;;;;4994956;28;20042;-56
2023/03/24 11:29:15;;;;;;;7.28;1.65;;;;;;;;;;4993778;28;20104;-56
2023/03/24 11:31:42;;;;;;;3.38;1.20;;;;;;;;;;4995047;28;20153;-56
2023/03/24 11:34:15;;;;;;;4.50;1.38;;;;;;;;;;4995961;28;20038;-56
2023/03/24 11:36:51;;;;;;;4.20;1.13;;;;;;;;;;4994875;28;20037;-58
2023/03/24 11:39:22;;;;;;;4.85;1.70;;;;;;;;;;4995722;28;22087;-63
2023/03/24 11:41:51;;;;;;;2.85;1.10;;;;;;;;;;4996176;28;20208;-56
2023/03/24 11:44:18;;;;;;;7.20;1.58;;;;;;;;;;4994830;28;20050;-59
2023/03/24 11:46:46;;;;;;;6.82;1.65;;;;;;;;;;4995544;28;20137;-57
2023/03/24 11:49:16;;;;;;;4.82;1.92;;;;;;;;;;4996303;28;20049;-56
2023/03/24 11:51:44;;;;;;;9.57;1.50;;;;;;;;;;5003523;28;20064;-57
2023/03/24 11:54:16;;;;;;;5.00;1.80;;;;;;;;;;4995729;28;20041;-53
2023/03/24 11:56:45;;;;;;;4.18;1.45;;;;;;;;;;5002102;28;21648;-55
2023/03/24 11:59:24;;;;;;;9.40;1.55;;;;;;;;;;4995324;28;20451;-54
2023/03/24 12:02:10;;;;;;;12.57;2.20;;;;;;;;;;4995474;28;20042;-53
2023/03/24 12:04:40;;;;;;;6.63;2.20;;;;;;;;;;4995140;28;20408;-55
2023/03/24 12:07:27;;;;;;;4.57;1.70;;;;;;;;;;4994655;28;20041;-56
2023/03/24 12:09:54;;;;;;;2.75;1.52;;;;;;;;;;5001519;28;20042;-56
2023/03/24 12:12:37;;;;;;;10.38;3.03;;;;;;;;;;4993913;28;20042;-56
2023/03/24 12:15:13;;;;;;;6.95;2.72;;;;;;;;;;4996000;28;20810;-55
2023/03/24 12:17:40;;;;;;;7.40;2.67;;;;;;;;;;4994179;28;20038;-56
2023/03/24 12:20:07;;;;;;;8.27;3.22;;;;;;;;;;4995369;28;20503;-54
2023/03/24 12:22:37;;;;;;;6.10;2.85;;;;;;;;;;4993987;28;20619;-55
2023/03/24 12:25:17;;;;;;;8.77;2.97;;;;;;;;;;4995459;28;20080;-55
2023/03/24 12:28:07;;;;;;;11.65;3.80;;;;;;;;;;4993479;28;20038;-59
2023/03/24 12:30:52;;;;;;;6.63;3.03;;;;;;;;;;4989629;28;20050;-56
2023/03/24 12:33:37;;;;;;;12.95;2.80;;;;;;;;;;4995155;28;20524;-58
2023/03/24 12:36:11;;;;;;;6.88;2.72;;;;;;;;;;4994692;28;20038;-57
2023/03/24 12:38:53;;;;;;;3.35;1.20;;;;;;;;;;4993379;28;20053;-56
2023/03/24 12:41:31;;;;;;;3.80;1.70;;;;;;;;;;4993618;28;20048;-59
2023/03/24 12:44:03;;;;;;;7.88;3.55;;;;;;;;;;4995014;28;20053;-56
2023/03/24 12:46:39;;;;;;;5.47;2.20;;;;;;;;;;4993174;28;20103;-55
2023/03/24 12:49:09;;;;;;;5.22;2.97;;;;;;;;;;4994773;28;20045;-55
2023/03/24 12:51:41;;;;;;;8.35;2.70;;;;;;;;;;4993504;28;20073;-59
2023/03/24 12:54:28;;;;;;;7.35;3.72;;;;;;;;;;4995250;28;20535;-54
2023/03/24 12:56:58;;;;;;;5.82;3.13;;;;;;;;;;5001323;28;20164;-59
2023/03/24 12:59:43;;;;;;;5.28;2.70;;;;;;;;;;4993781;28;20046;-56
2023/03/24 13:02:20;;;;;;;9.55;4.00;;;;;;;;;;4995093;28;20160;-57
2023/03/24 13:04:48;;;;;;;11.90;3.45;;;;;;;;;;5002043;28;20034;-58
2023/03/24 13:07:19;;;;;;;7.30;2.83;;;;;;;;;;4994301;28;20046;-57
2023/03/24 13:09:52;;;;;;;5.53;2.63;;;;;;;;;;5000335;28;20057;-58
2023/03/24 13:12:31;;;;;;;12.13;3.83;;;;;;;;;;4993648;28;20133;-56
2023/03/24 13:15:03;;;;;;;10.02;3.60;;;;;;;;;;4994738;28;20042;-57
2023/03/24 13:17:32;;;;;;;9.38;3.78;;;;;;;;;;4993397;28;20049;-56
2023/03/24 13:20:00;;;;;;;9.02;4.13;;;;;;;;;;4993973;28;20144;-57
2023/03/24 13:22:27;;;;;;;11.82;3.80;;;;;;;;;;4994027;28;21047;-56
2023/03/24 13:24:55;;;;;;;7.68;3.97;;;;;;;;;;4993979;28;20120;-56
2023/03/24 13:27:21;;;;;;;5.25;2.50;;;;;;;;;;4992690;28;20137;-57
2023/03/24 13:30:08;;;;;;;9.60;3.50;;;;;;;;;;4996268;28;20042;-56
2023/03/24 13:32:37;;;;;;;13.15;4.63;;;;;;;;;;5000385;28;20490;-55
2023/03/24 13:35:10;;;;;;;10.60;4.25;;;;;;;;;;4999478;28;20371;-55
2023/03/24 13:37:48;;;;;;;16.17;5.10;;;;;;;;;;4996922;28;20088;-55
2023/03/24 13:40:26;;;;;;;10.48;4.72;;;;;;;;;;4997987;28;20199;-57
2023/03/24 13:42:57;;;;;;;9.93;5.15;;;;;;;;;;4998602;28;20026;-56
2023/03/24 13:45:31;;;;;;;11.23;4.95;;;;;;;;;;4996882;28;20048;-59
2023/03/24 13:48:10;;;;;;;12.10;5.07;;;;;;;;;;4998358;28;20976;-60
2023/03/24 13:50:38;;;;;;;9.05;4.97;;;;;;;;;;4997262;28;20072;-58
2023/03/24 13:53:07;;;;;;;10.52;5.35;;;;;;;;;;4998139;28;20034;-58
2023/03/24 13:55:36;;;;;;;15.52;5.38;;;;;;;;;;4996662;28;20498;-58
2023/03/24 13:58:09;;;;;;;9.68;4.78;;;;;;;;;;4998325;28;20506;-58
2023/03/24 14:00:55;;;;;;;11.68;4.88;;;;;;;;;;4997185;28;20068;-60
2023/03/24 14:03:32;;;;;;;12.38;5.80;;;;;;;;;;4997527;28;20037;-55
2023/03/24 14:06:03;;;;;;;11.30;5.45;;;;;;;;;;4997371;28;20054;-56
2023/03/24 14:08:48;;;;;;;7.70;4.10;;;;;;;;;;4995950;28;20117;-59
2023/03/24 14:11:33;;;;;;;5.63;2.78;;;;;;;;;;4998477;28;20061;-57
2023/03/24 14:14:06;;;;;;;9.35;4.68;;;;;;;;;;5002782;28;20579;-55
2023/03/24 14:16:54;;;;;;;7.03;3.25;;;;;;;;;;5017584;28;20045;-54
2023/03/24 14:19:22;;;;;;;12.77;4.90;;;;;;;;;;4997177;28;20116;-55
2023/03/24 14:21:57;;;;;;;14.50;5.75;;;;;;;;;;4996897;28;20107;-55
2023/03/24 14:24:25;;;;;;;11.57;5.55;;;;;;;;;;4997198;28;20070;-55
2023/03/24 14:26:51;;;;;;;13.13;5.60;;;;;;;;;;4996289;28;20100;-58
2023/03/24 14:29:51;;;;;;;17.65;5.38;;;;;;;;;;4995986;28;20052;-56
2023/03/24 14:32:21;;;;;;;6.40;3.70;;;;;;;;;;4981056;28;21756;-57
2023/03/24 14:34:58;;;;;;;17.50;4.72;;;;;;;;;;4996166;28;20133;-57
2023/03/24 14:37:28;;;;;;;9.75;4.85;;;;;;;;;;4994804;28;20183;-55
2023/03/24 14:39:59;;;;;;;8.73;3.92;;;;;;;;;;4996645;28;20045;-54
2023/03/24 14:42:32;;;;;;;17.17;5.63;;;;;;;;;;4995720;28;20068;-57
2023/03/24 14:45:00;;;;;;;10.90;6.07;;;;;;;;;;4995662;28;20773;-57
2023/03/24 14:47:29;;;;;;;7.82;4.13;;;;;;;;;;4995149;28;20034;-57
2023/03/24 14:49:56;;;;;;;9.15;5.13;;;;;;;;;;4995867;28;20041;-57
2023/03/24 14:52:40;;;;;;;10.25;4.05;;;;;;;;;;4995014;28;20050;-58
2023/03/24 14:55:11;;;;;;;14.77;5.30;;;;;;;;;;4996187;28;20042;-59
2023/03/24 14:58:05;;;;;;;10.63;3.90;;;;;;;;;;4995654;28;20132;-55
2023/03/24 15:00:31;;;;;;;8.10;3.83;;;;;;;;;;4995241;28;20065;-55